WetterOnline ( https://www.wetteronline.de )

Wetter aktuell Oschatz

Aktuelles Wetter: Oschatz (152m)

6-stündlich | Neueste Meldungen
Ortszeit Temperatur Wetter
So, 29.11. 7:00 0.4° C bedeckt
So, 29.11. 1:00 2.2° C bedeckt
Sa, 28.11. 19:00 3.3° C bedeckt
Sa, 28.11. 13:00 3.6° C bedeckt
Sa, 28.11. 7:00 2.0° C bedeckt
Sa, 28.11. 1:00 2.3° C bedeckt
Fr, 27.11. 19:00 2.2° C leicht bewölkt
Fr, 27.11. 13:00 5.5° C leicht bewölkt
Ortszeit Temperatur Wetter
So, 29.11. 11:30 3.1° C bedeckt
So, 29.11. 11:20 3.1° C bedeckt
So, 29.11. 11:10 3.1° C bedeckt
So, 29.11. 11:00 2.9° C bedeckt
So, 29.11. 10:50 2.9° C bedeckt
So, 29.11. 10:40 2.9° C bedeckt
So, 29.11. 10:30 2.5° C bedeckt
So, 29.11. 10:00 2.4° C bewölkt
Ortszeit Relative Feuchte Sichtweite
So, 29.11. 7:00 95% 16 km
So, 29.11. 1:00 85% 40 km
Sa, 28.11. 19:00 71% 45 km
Sa, 28.11. 13:00 77% 28 km
Sa, 28.11. 7:00 98% 1.5 km
Sa, 28.11. 1:00 99% 2.2 km
Fr, 27.11. 19:00 94% 5.0 km
Fr, 27.11. 13:00 75% 23 km
Ortszeit Relative Feuchte Sichtweite
So, 29.11. 11:30 89% 15 km
So, 29.11. 11:20 89% -
So, 29.11. 11:10 89% -
So, 29.11. 11:00 89% 14 km
So, 29.11. 10:50 89% -
So, 29.11. 10:40 90% -
So, 29.11. 10:30 91% 11 km
So, 29.11. 10:00 91% 13 km
Ortszeit Niederschlagsmenge Niederschlagsart
So, 29.11. 7:00 0.0 l/m2 in 12 Std. -
So, 29.11. 1:00 0.0 l/m2 in 6 Std. -
Sa, 28.11. 19:00 0.0 l/m2 in 12 Std. -
Sa, 28.11. 13:00 0.0 l/m2 in 6 Std. -
Sa, 28.11. 7:00 0.0 l/m2 in 12 Std. -
Sa, 28.11. 1:00 0.0 l/m2 in 6 Std. -
Fr, 27.11. 19:00 0.1 l/m2 in 12 Std. -
Fr, 27.11. 13:00 0.1 l/m2 in 6 Std. Regen
Ortszeit Niederschlagsmenge Niederschlagsart
So, 29.11. 11:30 0.0 l/m2 in 1 Std. -
So, 29.11. 11:20 keine Meldung -
So, 29.11. 11:10 keine Meldung -
So, 29.11. 11:00 0.0 l/m2 in 1 Std. -
So, 29.11. 10:50 keine Meldung -
So, 29.11. 10:40 keine Meldung -
So, 29.11. 10:30 0.0 l/m2 in 1 Std. -
So, 29.11. 10:00 0.0 l/m2 in 1 Std. -
Ortszeit Stärke Spitze Richtung
km/h Bft. km/h Grad Sektor
So, 29.11. 7:00 9 2 11 330° NW
So, 29.11. 1:00 7 2 18 360° N
Sa, 28.11. 19:00 6 1 22 70° O
Sa, 28.11. 13:00 7 2 18 60° NO
Sa, 28.11. 7:00 6 1 13 60° NO
Sa, 28.11. 1:00 2 1 13 190° S
Fr, 27.11. 19:00 7 2 11 70° O
Fr, 27.11. 13:00 4 1 18 140° SO
Ortszeit Stärke Spitze Richtung
km/h Bft. km/h Grad Sektor
So, 29.11. 11:30 15 3 19 320° NW
So, 29.11. 11:20 15 3 - 320° NW
So, 29.11. 11:10 14 3 - 320° NW
So, 29.11. 11:00 13 3 17 320° NW
So, 29.11. 10:50 13 3 - 320° NW
So, 29.11. 10:40 11 2 - 320° NW
So, 29.11. 10:30 11 2 14 320° NW
So, 29.11. 10:00 6 1 11 340° N
Ortszeit Untergrenze Bedeckung Gattung
total tief tief mittel hoch
So, 29.11. 7:00 1110 m 8/8 8/8 - - -
So, 29.11. 1:00 1020 m 8/8 8/8 - - -
Sa, 28.11. 19:00 870 m 8/8 8/8 - - -
Sa, 28.11. 13:00 570 m 8/8 8/8 - - -
Sa, 28.11. 7:00 60 m 8/8 8/8 - - -
Sa, 28.11. 1:00 30 m 8/8 8/8 - - -
Fr, 27.11. 19:00 1470 m 2/8 2/8 - - -
Fr, 27.11. 13:00 1500 m 3/8 3/8 - - -
Ortszeit Bedeckungsgrad in Achtel und Wolkenuntergrenze
So, 29.11. 11:30 5(840m) 8(1080m)
So, 29.11. 11:20 5(840m) 8(1080m)
So, 29.11. 11:10 3(870m) 8(1110m)
So, 29.11. 11:00 8(1110m)
So, 29.11. 10:50 8(1110m)
So, 29.11. 10:40 8(1140m)
So, 29.11. 10:30 1(870m) 8(1140m)
So, 29.11. 10:00 8(1050m) 7(1080m)
Ortszeit Luftdruck NN (hPa) Tendenz (hPa in 3 Std.)
So, 29.11. 7:00 1026 0,0
So, 29.11. 1:00 1027 - 0,1
Sa, 28.11. 19:00 1026 + 1,0
Sa, 28.11. 13:00 1025 - 0,1
Sa, 28.11. 7:00 1024 + 0,5
Sa, 28.11. 1:00 1023 - 0,2
Fr, 27.11. 19:00 1023 + 0,5
Fr, 27.11. 13:00 1022 - 0,6
Ortszeit Luftdruck NN (hPa) Tendenz (hPa in 3 Std.)
So, 29.11. 11:30 1027 + 0,1
So, 29.11. 11:20 1027 keine Meldung
So, 29.11. 11:10 1027 keine Meldung
So, 29.11. 11:00 1027 + 0,4
So, 29.11. 10:50 1027 keine Meldung
So, 29.11. 10:40 1027 keine Meldung
So, 29.11. 10:30 1027 + 0,7
So, 29.11. 10:00 1027 + 0,7
Ortszeit Schneehöhe (cm)
So, 29.11. 7:00 0
So, 29.11. 1:00 0
Sa, 28.11. 19:00 0
Sa, 28.11. 13:00 0
Sa, 28.11. 7:00 0
Sa, 28.11. 1:00 0
Fr, 27.11. 19:00 0
Fr, 27.11. 13:00 0
Ortszeit Schneehöhe (cm)
So, 29.11. 11:30 0
So, 29.11. 11:20 0
So, 29.11. 11:10 0
So, 29.11. 11:00 0
So, 29.11. 10:50 0
So, 29.11. 10:40 0
So, 29.11. 10:30 0
So, 29.11. 10:00 0
Link zu dieser Seite / Seite empfehlen

Das Wetter in ...